Impacts METAR Board
IDs:

KAQO - Llano Muni, TX, US

Updated at: 0600 UTC 19 Aug 2019
Potential Impact None Slight Moderate High
Time 18/18Z 18/19Z 18/20Z 18/21Z 18/22Z 18/23Z 19/00Z 19/01Z 19/02Z 19/03Z 19/04Z 19/05Z 19/06Z
Temp99 100 102 104 104 102 100 97 93 91 90 88 84
Dewpt63 63 61 61 63 63 61 61 64 64 68 70 66
Altim29.92 29.91 29.89 29.88 29.86 29.86 29.86 29.87 29.88 29.91 29.94 29.95 29.97
VIS10 10 10 10 10 10 10 10 10 10 10 10
CIG-- -- -- -- -- -- -- -- -- -- -- -- --
CoverCLRCLRCLRCLRCLRCLRCLRCLRCLRCLRCLRCLRCLR
FltCatVFRVFRVFRVFRVFRVFRVFRVFRVFRVFRVFRVFR
WX--------------------------
WDir140160180120130160130140140140150150140
WSpd7 5 11 9 7 8 8 5 5 4 12 7 6
WGst-- -- -- 15 -- -- -- -- -- -- 16 -- --
Raw hourly METARs
KAQO 181750Z AUTO 14007KT 10SM CLR 37/17 A2992 RMK AO2
KAQO 181850Z AUTO 16005KT CLR 38/17 A2991 RMK AO2
KAQO 181950Z AUTO 18011KT 10SM CLR 39/16 A2989 RMK AO2
KAQO 182050Z AUTO 12009G15KT 10SM CLR 40/16 A2988 RMK AO2
KAQO 182150Z AUTO 13007KT 10SM CLR 40/17 A2986 RMK AO2
KAQO 182250Z AUTO 16008KT 10SM CLR 39/17 A2986 RMK AO2
KAQO 182350Z AUTO 13008KT 10SM CLR 38/16 A2986 RMK AO2
KAQO 190050Z AUTO 14005KT 10SM CLR 36/16 A2987 RMK AO2
KAQO 190150Z AUTO 14005KT 10SM CLR 34/18 A2988 RMK AO2
KAQO 190250Z AUTO 14004KT 10SM CLR 33/18 A2991 RMK AO2
KAQO 190350Z AUTO 15012G16KT 10SM CLR 32/20 A2994 RMK AO2
KAQO 190450Z AUTO 15007KT 10SM CLR 31/21 A2995 RMK AO2
KAQO 190550Z AUTO 14006KT 10SM CLR 29/19 A2997 RMK AO2



Page loaded:  06:14 UTC  |   11:14 PM Pacific  |   12:14 AM Mountain  |   01:14 AM Central  |   02:14 AM Eastern

 

ADVISORIES

FORECASTS

FORECASTS

OBSERVATIONS

USER TOOLS

ABOUT US